Time,TemperatureF,DewpointF,PressureIn,WindDirection,WindDirectionDegrees,WindSpeedMPH,WindSpeedGustMPH,Humidity,HourlyPrecipIn,Conditions,Clouds,dailyrainin,SolarRadiationWatts/m^2,SoftwareType,DateUTC
2013-04-29 00:00:00,44.0,40.0,-100.00,SSE,157,3.0,-999.0,85,-99.99,,,-99.99,0.000000,,2013-04-29 05:00:00,
2013-04-29 00:42:00,44.0,40.0,-100.00,SSE,157,3.0,-999.0,85,-99.99,,,-99.99,0.000000,,2013-04-29 05:42:00,
2013-04-29 00:52:00,44.0,40.0,-100.00,SSE,157,3.0,-999.0,85,-99.99,,,-99.99,0.000000,,2013-04-29 05:52:00,
2013-04-29 01:00:00,43.0,40.0,-100.00,SSE,157,2.0,-999.0,89,-99.99,,,-99.99,0.000000,,2013-04-29 06:00:00,
2013-04-29 01:42:00,43.0,40.0,-100.00,SSE,157,2.0,-999.0,89,-99.99,,,-99.99,0.000000,,2013-04-29 06:42:00,
2013-04-29 01:52:00,43.0,40.0,-100.00,SSE,157,2.0,-999.0,89,-99.99,,,-99.99,0.000000,,2013-04-29 06:52:00,
2013-04-29 02:00:00,43.0,40.0,-100.00,SSE,157,3.0,-999.0,92,-99.99,,,-99.99,0.000000,,2013-04-29 07:00:00,
2013-04-29 02:42:00,43.0,40.0,-100.00,SSE,157,3.0,-999.0,92,-99.99,,,-99.99,0.000000,,2013-04-29 07:42:00,
2013-04-29 02:52:00,43.0,40.0,-100.00,SSE,157,3.0,-999.0,92,-99.99,,,-99.99,0.000000,,2013-04-29 07:52:00,
2013-04-29 03:00:00,42.0,41.0,-100.00,SSE,157,2.0,-999.0,93,-99.99,,,-99.99,0.000000,,2013-04-29 08:00:00,
2013-04-29 03:42:00,42.0,41.0,-100.00,SSE,157,2.0,-999.0,93,-99.99,,,-99.99,0.000000,,2013-04-29 08:42:00,
2013-04-29 03:52:00,42.0,41.0,-100.00,SSE,157,2.0,-999.0,93,-99.99,,,-99.99,0.000000,,2013-04-29 08:52:00,
2013-04-29 04:00:00,42.0,41.0,-100.00,SE,135,2.0,-999.0,93,-99.99,,,-99.99,0.000000,,2013-04-29 09:00:00,
2013-04-29 04:42:00,42.0,41.0,-100.00,SE,135,2.0,-999.0,93,-99.99,,,-99.99,0.000000,,2013-04-29 09:42:00,
2013-04-29 04:53:00,42.0,41.0,-100.00,SE,135,2.0,-999.0,93,-99.99,,,-99.99,0.000000,,2013-04-29 09:53:00,
2013-04-29 05:00:00,44.0,42.0,-100.00,SSE,157,3.0,-999.0,93,-99.99,,,-99.99,0.000000,,2013-04-29 10:00:00,
2013-04-29 05:42:00,44.0,42.0,-100.00,SSE,157,3.0,-999.0,93,-99.99,,,-99.99,0.000000,,2013-04-29 10:42:00,
2013-04-29 05:52:00,44.0,42.0,-100.00,SSE,157,3.0,-999.0,93,-99.99,,,-99.99,0.000000,,2013-04-29 10:52:00,
2013-04-29 06:00:00,44.0,42.0,-100.00,SE,135,0.0,-999.0,92,-99.99,,,-99.99,1.160000,,2013-04-29 11:00:00,
2013-04-29 06:42:00,44.0,42.0,-100.00,SE,135,0.0,-999.0,92,-99.99,,,-99.99,1.160000,,2013-04-29 11:42:00,
2013-04-29 06:52:00,44.0,42.0,-100.00,SE,135,0.0,-999.0,92,-99.99,,,-99.99,1.160000,,2013-04-29 11:52:00,
2013-04-29 08:00:00,45.0,43.0,-100.00,SSE,157,1.0,-999.0,94,-99.99,,,-99.99,39.439999,,2013-04-29 13:00:00,
2013-04-29 08:42:00,45.0,43.0,-100.00,SSE,157,1.0,-999.0,94,-99.99,,,-99.99,39.439999,,2013-04-29 13:42:00,
2013-04-29 08:52:00,45.0,43.0,-100.00,SSE,157,1.0,-999.0,94,-99.99,,,-99.99,39.439999,,2013-04-29 13:52:00,
2013-04-29 09:00:00,45.0,44.0,-100.00,SSE,157,3.0,-999.0,94,-99.99,,,-99.99,116.000000,,2013-04-29 14:00:00,
2013-04-29 09:42:00,45.0,44.0,-100.00,SSE,157,3.0,-999.0,94,-99.99,,,-99.99,116.000000,,2013-04-29 14:42:00,
2013-04-29 09:52:00,45.0,44.0,-100.00,SSE,157,3.0,-999.0,94,-99.99,,,-99.99,116.000000,,2013-04-29 14:52:00,
2013-04-29 10:00:00,49.0,47.0,-100.00,SSE,157,2.0,-999.0,94,-99.99,,,-99.99,156.600006,,2013-04-29 15:00:00,
2013-04-29 10:43:00,49.0,47.0,-100.00,SSE,157,2.0,-999.0,94,-99.99,,,-99.99,156.600006,,2013-04-29 15:43:00,
2013-04-29 10:53:00,49.0,47.0,-100.00,SSE,157,2.0,-999.0,94,-99.99,,,-99.99,156.600006,,2013-04-29 15:53:00,
2013-04-29 11:00:00,51.0,49.0,-100.00,SSE,157,2.0,-999.0,93,0.01,,,-99.99,174.000000,,2013-04-29 16:00:00,
2013-04-29 11:42:00,51.0,49.0,-100.00,SSE,157,2.0,-999.0,93,0.01,,,-99.99,174.000000,,2013-04-29 16:42:00,
2013-04-29 11:52:00,51.0,49.0,-100.00,SSE,157,2.0,-999.0,93,0.01,,,-99.99,174.000000,,2013-04-29 16:52:00,
2013-04-29 12:00:00,50.0,49.0,-100.00,SSE,157,3.0,-999.0,94,0.07,,,-99.99,100.919998,,2013-04-29 17:00:00,
2013-04-29 12:42:00,50.0,49.0,-100.00,SSE,157,3.0,-999.0,94,0.07,,,-99.99,100.919998,,2013-04-29 17:42:00,
2013-04-29 12:52:00,50.0,49.0,-100.00,SSE,157,3.0,-999.0,94,0.07,,,-99.99,100.919998,,2013-04-29 17:52:00,
2013-04-29 13:00:00,50.0,49.0,-100.00,SSE,157,3.0,-999.0,95,0.03,,,-99.99,74.239998,,2013-04-29 18:00:00,
2013-04-29 13:42:00,50.0,49.0,-100.00,SSE,157,3.0,-999.0,95,0.03,,,-99.99,74.239998,,2013-04-29 18:42:00,
2013-04-29 13:52:00,50.0,49.0,-100.00,SSE,157,3.0,-999.0,95,0.03,,,-99.99,74.239998,,2013-04-29 18:52:00,
2013-04-29 15:00:00,56.0,53.0,-100.00,SSE,157,4.0,-999.0,89,-99.99,,,-99.99,276.079987,,2013-04-29 20:00:00,
2013-04-29 15:42:00,56.0,53.0,-100.00,SSE,157,4.0,-999.0,89,-99.99,,,-99.99,276.079987,,2013-04-29 20:42:00,
2013-04-29 15:52:00,56.0,53.0,-100.00,SSE,157,4.0,-999.0,89,-99.99,,,-99.99,276.079987,,2013-04-29 20:52:00,
2013-04-29 17:00:00,53.0,50.0,-100.00,SSE,157,5.0,-999.0,88,-99.99,,,-99.99,139.199997,,2013-04-29 22:00:00,
2013-04-29 17:42:00,53.0,50.0,-100.00,SSE,157,5.0,-999.0,88,-99.99,,,-99.99,139.199997,,2013-04-29 22:42:00,
2013-04-29 17:53:00,53.0,50.0,-100.00,SSE,157,5.0,-999.0,88,-99.99,,,-99.99,139.199997,,2013-04-29 22:53:00,
2013-04-29 18:00:00,54.0,50.0,-100.00,SSE,157,3.0,-999.0,85,-99.99,,,-99.99,269.119995,,2013-04-29 23:00:00,
2013-04-29 18:42:00,54.0,50.0,-100.00,SSE,157,3.0,-999.0,85,-99.99,,,-99.99,269.119995,,2013-04-29 23:42:00,
2013-04-29 18:52:00,54.0,50.0,-100.00,SSE,157,3.0,-999.0,85,-99.99,,,-99.99,269.119995,,2013-04-29 23:52:00,